createdAt,value
2018-09-21T04:01:38.293Z,18.20
2018-09-21T04:04:07.037Z,18.10
2018-09-21T04:06:35.262Z,18.10
2018-09-21T04:09:03.855Z,18.00
2018-09-21T04:11:32.071Z,18.00
2018-09-21T04:14:00.244Z,18.00
2018-09-21T04:16:28.421Z,17.90
2018-09-21T04:18:56.597Z,17.90
2018-09-21T04:21:24.788Z,17.90
2018-09-21T04:23:52.978Z,17.80
2018-09-21T04:26:21.193Z,17.90
2018-09-21T04:28:49.356Z,18.00
2018-09-21T04:31:17.551Z,17.90
2018-09-21T04:33:45.782Z,17.90
2018-09-21T04:36:14.015Z,17.80
2018-09-21T04:38:42.151Z,17.70
2018-09-21T04:41:10.343Z,17.70
2018-09-21T04:43:38.513Z,17.70
2018-09-21T04:46:06.716Z,17.70
2018-09-21T04:48:35.016Z,17.80
2018-09-21T04:51:03.173Z,17.80
2018-09-21T04:53:31.367Z,17.70
2018-09-21T04:55:59.597Z,17.60
2018-09-21T04:58:27.753Z,17.60
2018-09-21T05:00:55.905Z,17.60
2018-09-21T05:03:24.073Z,17.60
2018-09-21T05:05:52.277Z,17.60
2018-09-21T05:08:20.451Z,17.60
2018-09-21T05:10:48.647Z,17.70
2018-09-21T05:13:16.822Z,17.70
2018-09-21T05:15:45.029Z,17.70
2018-09-21T05:18:13.188Z,17.80
2018-09-21T05:20:41.425Z,17.80
2018-09-21T05:23:09.677Z,17.80
2018-09-21T05:25:37.849Z,17.90
2018-09-21T05:28:06.077Z,18.00
2018-09-21T05:30:34.243Z,18.00
2018-09-21T05:33:02.450Z,18.00
2018-09-21T05:35:30.654Z,18.10
2018-09-21T05:37:58.860Z,18.20
2018-09-21T05:40:27.024Z,18.20
2018-09-21T05:42:55.218Z,18.30
2018-09-21T05:45:23.417Z,18.30
2018-09-21T05:47:51.579Z,18.40
2018-09-21T05:50:19.754Z,18.40
2018-09-21T05:52:48.005Z,18.50
2018-09-21T05:55:16.844Z,18.50
2018-09-21T05:57:45.046Z,18.50
2018-09-21T06:00:15.298Z,18.60
2018-09-21T06:02:43.677Z,18.60
2018-09-21T06:05:11.870Z,18.70
2018-09-21T06:07:40.082Z,18.70
2018-09-21T06:10:08.258Z,18.80
2018-09-21T06:12:37.083Z,18.90
2018-09-21T06:15:06.216Z,18.90
2018-09-21T06:17:34.406Z,19.00
2018-09-21T06:20:11.935Z,19.00
2018-09-21T06:22:30.777Z,19.20
2018-09-21T06:24:58.956Z,19.20
2018-09-21T06:27:27.146Z,19.30
2018-09-21T06:29:55.337Z,19.40
2018-09-21T06:32:23.510Z,19.50
2018-09-21T06:34:51.736Z,19.50
2018-09-21T06:37:19.930Z,19.60
2018-09-21T06:39:48.293Z,19.70
2018-09-21T06:42:16.565Z,19.70
2018-09-21T06:44:44.741Z,19.80
2018-09-21T06:47:12.926Z,19.80
2018-09-21T06:49:41.112Z,20.00
2018-09-21T06:52:09.273Z,20.00
2018-09-21T06:54:37.466Z,20.10
2018-09-21T06:57:05.767Z,20.30
2018-09-21T06:59:33.993Z,20.40
2018-09-21T07:02:02.188Z,20.40
2018-09-21T07:04:30.442Z,20.50
2018-09-21T07:06:58.633Z,20.60
2018-09-21T07:09:26.804Z,20.60
2018-09-21T07:11:55.022Z,20.70
2018-09-21T07:14:23.182Z,20.80
2018-09-21T07:16:51.338Z,20.90
2018-09-21T07:19:19.550Z,21.10
2018-09-21T07:21:47.715Z,21.20
2018-09-21T07:24:15.900Z,21.30
2018-09-21T07:26:44.037Z,21.40
2018-09-21T07:29:12.218Z,21.50
2018-09-21T07:31:40.394Z,21.70
2018-09-21T07:34:08.591Z,21.90
2018-09-21T07:36:36.767Z,22.00
2018-09-21T07:39:06.154Z,22.10
2018-09-21T07:41:34.332Z,22.20
2018-09-21T07:44:02.509Z,22.40
2018-09-21T07:46:30.700Z,22.50
2018-09-21T07:48:58.922Z,22.60
2018-09-21T07:51:27.063Z,22.70
2018-09-21T07:53:55.234Z,22.80
2018-09-21T07:56:23.400Z,23.00
2018-09-21T07:58:51.921Z,23.10
2018-09-21T08:01:20.115Z,23.20
2018-09-21T08:03:48.597Z,23.40
2018-09-21T08:06:16.786Z,23.60
2018-09-21T08:08:44.977Z,23.80
2018-09-21T08:11:13.184Z,23.90
2018-09-21T08:13:41.357Z,24.20
2018-09-21T08:16:09.507Z,24.30
2018-09-21T08:18:37.706Z,24.50
2018-09-21T08:21:05.897Z,24.50
2018-09-21T08:23:34.084Z,24.70
2018-09-21T08:26:02.293Z,24.80
2018-09-21T08:28:30.496Z,24.90
2018-09-21T08:30:58.670Z,24.90
2018-09-21T08:33:26.833Z,25.00
2018-09-21T08:35:55.069Z,25.10
2018-09-21T08:38:23.256Z,25.10
2018-09-21T08:40:51.433Z,25.10
2018-09-21T08:43:19.624Z,25.20
2018-09-21T08:45:47.808Z,25.30
2018-09-21T08:48:16.032Z,25.30
2018-09-21T08:50:44.259Z,25.40
2018-09-21T08:53:12.435Z,25.50
2018-09-21T08:55:40.626Z,25.60
2018-09-21T08:58:08.798Z,25.70
2018-09-21T09:00:37.005Z,25.90
2018-09-21T09:03:05.211Z,26.10
2018-09-21T09:05:33.392Z,26.30
2018-09-21T09:08:01.729Z,26.40
2018-09-21T09:10:29.897Z,26.60
2018-09-21T09:12:58.349Z,26.70
2018-09-21T09:15:26.549Z,26.80
2018-09-21T09:17:54.733Z,26.90
2018-09-21T09:20:23.181Z,26.90
2018-09-21T09:22:51.371Z,27.00
2018-09-21T09:25:19.679Z,27.10
2018-09-21T09:27:48.222Z,27.10
2018-09-21T09:30:16.398Z,27.30
2018-09-21T09:32:44.577Z,27.30
2018-09-21T09:35:12.839Z,27.40
2018-09-21T09:37:41.063Z,27.40
2018-09-21T09:40:09.259Z,27.50
2018-09-21T09:42:37.676Z,27.50
2018-09-21T09:45:05.890Z,27.60
2018-09-21T09:47:34.081Z,27.50
2018-09-21T09:50:02.370Z,27.50
2018-09-21T09:52:30.542Z,27.50
2018-09-21T09:54:58.819Z,27.60
2018-09-21T09:57:26.961Z,27.70
2018-09-21T09:59:55.114Z,27.80
2018-09-21T10:02:23.347Z,27.90
2018-09-21T10:04:51.590Z,27.90
2018-09-21T10:07:19.776Z,28.00
2018-09-21T10:09:47.937Z,28.10
2018-09-21T10:12:16.113Z,28.20
2018-09-21T10:14:44.276Z,28.30
2018-09-21T10:17:12.446Z,28.40
2018-09-21T10:19:40.602Z,28.40
2018-09-21T10:22:08.862Z,28.40
2018-09-21T10:24:37.041Z,28.50
2018-09-21T10:27:05.410Z,28.60
2018-09-21T10:29:33.573Z,28.70
2018-09-21T10:32:01.766Z,28.80
2018-09-21T10:34:29.933Z,28.90
2018-09-21T10:36:58.160Z,28.90
2018-09-21T10:39:26.328Z,29.00
2018-09-21T10:41:54.502Z,29.10
2018-09-21T10:44:22.677Z,29.20
2018-09-21T10:46:50.964Z,29.40
2018-09-21T10:49:19.100Z,29.60
2018-09-21T10:51:47.286Z,29.80
2018-09-21T10:54:15.447Z,29.80
2018-09-21T10:56:43.633Z,29.80
2018-09-21T10:59:11.900Z,29.70
2018-09-21T11:01:40.081Z,29.70
2018-09-21T11:04:08.224Z,29.60
2018-09-21T11:06:36.461Z,29.60
2018-09-21T11:09:08.151Z,29.60
2018-09-21T11:11:36.325Z,29.60
2018-09-21T11:14:04.503Z,29.70
2018-09-21T11:16:32.702Z,29.70
2018-09-21T11:19:00.905Z,29.70
2018-09-21T11:21:29.505Z,29.70
2018-09-21T11:23:57.665Z,29.70
2018-09-21T11:26:25.825Z,29.60
2018-09-21T11:28:54.229Z,29.60
2018-09-21T11:31:22.406Z,29.60
2018-09-21T11:33:50.585Z,29.80
2018-09-21T11:36:18.753Z,29.80
2018-09-21T11:38:46.929Z,29.80
2018-09-21T11:41:15.101Z,29.80
2018-09-21T11:43:43.285Z,29.80
2018-09-21T11:46:11.676Z,29.70
2018-09-21T11:48:39.797Z,29.70
2018-09-21T11:51:07.967Z,29.70
2018-09-21T11:53:36.117Z,29.60
2018-09-21T11:56:04.349Z,29.60
2018-09-21T11:58:32.526Z,29.50
2018-09-21T12:01:00.734Z,29.40
2018-09-21T12:03:28.909Z,29.40
2018-09-21T12:05:57.086Z,29.60
2018-09-21T12:08:25.245Z,29.80
2018-09-21T12:10:53.409Z,29.80
2018-09-21T12:13:21.563Z,30.00
2018-09-21T12:15:50.038Z,30.00
2018-09-21T12:18:18.187Z,30.00
2018-09-21T12:20:46.387Z,30.00
2018-09-21T12:23:14.582Z,30.10
2018-09-21T12:25:42.758Z,30.20
2018-09-21T12:28:10.914Z,30.40
2018-09-21T12:30:39.158Z,30.40
2018-09-21T12:33:07.315Z,30.40
2018-09-21T12:35:35.513Z,30.30
2018-09-21T12:38:04.042Z,30.20
2018-09-21T12:40:32.203Z,30.30
2018-09-21T12:43:00.373Z,30.50
2018-09-21T12:45:28.663Z,30.60
2018-09-21T12:47:56.825Z,30.80
2018-09-21T12:50:25.033Z,30.90
2018-09-21T12:52:53.228Z,30.90
2018-09-21T12:55:21.448Z,30.70
2018-09-21T12:57:49.654Z,30.50
2018-09-21T13:00:17.950Z,30.40
2018-09-21T13:02:46.193Z,30.40
2018-09-21T13:05:14.349Z,30.30
2018-09-21T13:07:42.519Z,30.30
2018-09-21T13:10:10.768Z,30.10
2018-09-21T13:12:38.921Z,30.00
2018-09-21T13:15:07.174Z,29.90
2018-09-21T13:17:35.339Z,30.00
2018-09-21T13:20:03.615Z,30.00
2018-09-21T13:22:31.793Z,30.00
2018-09-21T13:25:00.033Z,30.10
2018-09-21T13:27:28.202Z,30.20
2018-09-21T13:29:56.718Z,30.20
2018-09-21T13:32:24.970Z,30.20
2018-09-21T13:34:53.073Z,30.10
2018-09-21T13:37:21.278Z,29.90
2018-09-21T13:39:49.871Z,29.80
2018-09-21T13:42:18.981Z,29.70
2018-09-21T13:44:48.129Z,29.70
2018-09-21T13:47:19.099Z,29.70
2018-09-21T13:49:47.289Z,29.70
2018-09-21T13:52:15.486Z,29.90
2018-09-21T13:54:45.239Z,29.90
2018-09-21T13:57:13.672Z,30.00
2018-09-21T13:59:42.089Z,30.00
2018-09-21T14:02:10.317Z,30.00
2018-09-21T14:04:38.498Z,29.90
2018-09-21T14:07:11.774Z,29.70
2018-09-21T14:09:40.355Z,29.60
2018-09-21T14:12:08.531Z,29.50
2018-09-21T14:14:36.753Z,29.40
2018-09-21T14:17:04.906Z,29.40
2018-09-21T14:19:33.083Z,29.40
2018-09-21T14:22:01.349Z,29.40
2018-09-21T14:24:29.533Z,29.50
2018-09-21T14:26:57.726Z,29.40
2018-09-21T14:29:26.000Z,29.40
2018-09-21T14:31:54.177Z,29.40
2018-09-21T14:34:22.396Z,29.40
2018-09-21T14:36:50.589Z,29.40
2018-09-21T14:39:18.785Z,29.40
2018-09-21T14:41:47.051Z,29.30
2018-09-21T14:44:15.247Z,29.30
2018-09-21T14:46:43.605Z,29.20
2018-09-21T14:49:11.806Z,29.20
2018-09-21T14:51:40.249Z,29.10
2018-09-21T14:54:08.870Z,29.10
2018-09-21T14:56:37.081Z,29.10
2018-09-21T14:59:05.336Z,29.00
2018-09-21T15:01:33.645Z,28.90
2018-09-21T15:04:01.982Z,28.80
2018-09-21T15:06:30.161Z,28.70
2018-09-21T15:08:58.490Z,28.60
2018-09-21T15:11:26.649Z,28.50
2018-09-21T15:13:54.825Z,28.50
2018-09-21T15:16:23.194Z,28.40
2018-09-21T15:18:51.434Z,28.40
2018-09-21T15:21:19.590Z,28.30
2018-09-21T15:23:47.787Z,28.20
2018-09-21T15:26:16.018Z,28.20
2018-09-21T15:28:44.309Z,28.10
2018-09-21T15:31:12.560Z,28.00
2018-09-21T15:33:40.753Z,28.00
2018-09-21T15:36:08.937Z,28.00
2018-09-21T15:38:37.133Z,27.90
2018-09-21T15:41:05.318Z,27.90
2018-09-21T15:43:33.577Z,27.70
2018-09-21T15:46:01.705Z,25.70
2018-09-21T15:48:30.106Z,24.00
2018-09-21T15:50:58.390Z,23.10
2018-09-21T15:53:27.616Z,22.60
2018-09-21T15:55:56.738Z,22.30
2018-09-21T15:58:26.248Z,22.10
2018-09-21T16:00:55.504Z,21.80
2018-09-21T16:03:23.845Z,21.60
2018-09-21T16:05:52.198Z,21.50
2018-09-21T16:08:20.705Z,21.50
2018-09-21T16:10:55.700Z,21.60
2018-09-21T16:13:23.989Z,21.50
2018-09-21T16:15:53.271Z,21.50
2018-09-21T16:18:21.490Z,21.50
2018-09-21T16:20:49.817Z,21.40
2018-09-21T16:23:18.073Z,21.40
2018-09-21T16:25:46.303Z,21.40
2018-09-21T16:28:14.624Z,21.40
2018-09-21T16:30:42.842Z,21.40
2018-09-21T16:33:11.102Z,21.40
2018-09-21T16:35:39.601Z,21.40
2018-09-21T16:38:07.927Z,21.60
2018-09-21T16:40:36.314Z,21.60
2018-09-21T16:43:04.553Z,21.50
2018-09-21T16:45:32.894Z,21.20
2018-09-21T16:48:01.512Z,20.80
2018-09-21T16:50:29.922Z,20.40
2018-09-21T16:52:58.262Z,19.90
2018-09-21T16:55:26.562Z,19.50
2018-09-21T16:57:54.806Z,19.40
2018-09-21T17:00:23.256Z,19.10
2018-09-21T17:02:52.031Z,18.60
2018-09-21T17:05:20.441Z,18.40
2018-09-21T17:07:49.605Z,18.00
2018-09-21T17:10:18.231Z,17.70
2018-09-21T17:12:47.423Z,17.40
2018-09-21T17:15:17.755Z,17.20
2018-09-21T17:17:48.608Z,17.10
2018-09-21T17:20:17.069Z,16.90
2018-09-21T17:22:45.415Z,16.90
2018-09-21T17:25:13.634Z,16.90
2018-09-21T17:27:41.919Z,16.70
2018-09-21T17:30:10.223Z,16.60
2018-09-21T17:32:38.800Z,16.50
2018-09-21T17:35:07.367Z,16.40
2018-09-21T17:37:35.744Z,16.20
2018-09-21T17:40:04.003Z,16.20
2018-09-21T17:42:32.386Z,16.10
2018-09-21T17:45:00.754Z,16.10
2018-09-21T17:47:29.072Z,16.00
2018-09-21T17:49:57.595Z,15.90
2018-09-21T17:52:25.914Z,15.90
2018-09-21T17:54:54.423Z,15.90
2018-09-21T17:57:22.817Z,15.90
2018-09-21T17:59:51.146Z,15.90
2018-09-21T18:02:19.464Z,15.90
2018-09-21T18:04:47.952Z,15.90
2018-09-21T18:07:20.448Z,16.00
2018-09-21T18:09:50.221Z,16.00
2018-09-21T18:12:18.710Z,16.10
2018-09-21T18:14:46.999Z,16.30
2018-09-21T18:17:15.291Z,16.40
2018-09-21T18:19:43.660Z,16.30
2018-09-21T18:22:12.537Z,16.20
2018-09-21T18:24:41.250Z,16.30
2018-09-21T18:27:10.246Z,16.30
2018-09-21T18:29:38.751Z,16.30
2018-09-21T18:32:07.231Z,16.30
2018-09-21T18:34:35.444Z,16.30
2018-09-21T18:37:03.616Z,16.30
2018-09-21T18:39:31.862Z,16.20
2018-09-21T18:42:00.078Z,16.10
2018-09-21T18:44:28.388Z,15.90
2018-09-21T18:46:56.703Z,15.50
2018-09-21T18:49:24.936Z,15.20
2018-09-21T18:51:53.187Z,15.10
2018-09-21T18:54:21.450Z,15.30
2018-09-21T18:56:49.738Z,15.30
2018-09-21T18:59:17.909Z,15.20
2018-09-21T19:01:46.181Z,15.00
2018-09-21T19:04:14.571Z,14.80
2018-09-21T19:06:42.813Z,14.60
2018-09-21T19:09:12.173Z,14.40
